VOCB/CJB METAR and TAF weather

Enter ICAO airport designator
Station Type Date Time Source
VOCB METAR 2019/07/18 11:00 UTC NOAA

VOCB 181100Z 21010KT 5000 HZ SCT015 FEW020TCU SCT080 28/23 Q1005 NOSIG


Station Type Date Time Source
VOCB Decoded METAR 2019/07/18 11:00 UTC NOAA

Coimbatore / Peelamedu, India (VOCB) 11-02N 077-03E 399M
Jul 18, 2019 - 07:00 AM EDT / 2019.07.18 1100 UTC
Wind: from the SSW (210 degrees) at 12 MPH (10 KT):0
Visibility: 3 mile(s):0
Sky conditions: partly cloudy
Weather: haze; Towering cumulus clouds observed
Temperature: 82 F (28 C)
Dew Point: 73 F (23 C)
Relative Humidity: 74%
Pressure (altimeter): 29.68 in. Hg (1005 hPa)
ob: VOCB 181100Z 21010KT 5000 HZ SCT015 FEW020TCU SCT080 28/23 Q1005 NOSIG
cycle: 11

Station Type Date Time Source
VOCB TAF 2019/07/18 12:00 UTC NOAA

TAF VOCB 181100Z 1812/1918 20010KT 6000 SCT015 SCT080
TEMPO 1812/1818 4000 -TSRA/RA SCT015 FEW020TCU/CB BKN080
BECMG 1815/1816 5000 BR
BECMG 1904/1905 6000
TEMPO 1909/1915 4000 -TSRA/RA SCT015 FEW020TCU/CB BKN080
BECMG 1915/1916 5000 BR

Example: see airport list